Time;durP1;ratioP1;P1;durP2;ratioP2;P2;SDS_P1;SDS_P2;PMS_P1;PMS_P2;Temp;Humidity;BMP_temperature;BMP_pressure;BME280_temperature;BME280_humidity;BME280_pressure;Samples;Min_cycle;Max_cycle;Signal;HPM_P1;HPM_P2
2024/01/06 00:02:16;;;;;;;8.33;2.50;;;;;;;13.29;50.73;98900.44;6156447;23;20161;-86
2024/01/06 00:04:43;;;;;;;4.30;1.83;;;;;;;13.31;51.10;98899.41;6156205;23;20229;-86
2024/01/06 00:07:10;;;;;;;5.93;2.23;;;;;;;13.46;50.69;98905.44;6156226;23;20160;-86
2024/01/06 00:09:35;;;;;;;3.10;1.47;;;;;;;13.53;50.33;98898.78;6130193;23;20169;-86
2024/01/06 00:12:02;;;;;;;4.00;1.70;;;;;;;13.67;50.32;98884.69;6156140;23;20154;-86
2024/01/06 00:14:28;;;;;;;4.90;2.37;;;;;;;13.71;50.00;98887.00;6156381;23;20161;-85
2024/01/06 00:16:54;;;;;;;2.93;1.60;;;;;;;13.76;49.88;98886.66;6156121;23;20208;-86
2024/01/06 00:19:19;;;;;;;5.20;2.00;;;;;;;13.67;49.95;98896.06;6155954;23;20182;-86
2024/01/06 00:21:45;;;;;;;7.10;1.33;;;;;;;13.46;50.81;98905.44;6155814;23;20188;-86
2024/01/06 00:24:11;;;;;;;3.90;1.53;;;;;;;13.33;51.33;98899.31;6155896;23;20519;-86
2024/01/06 00:26:37;;;;;;;8.03;1.10;;;;;;;13.30;51.31;98903.00;6155929;23;20489;-86
2024/01/06 00:29:02;;;;;;;5.50;1.77;;;;;;;13.29;51.98;98897.81;6155852;23;20150;-86
2024/01/06 00:31:29;;;;;;;5.03;2.10;;;;;;;13.40;51.38;98903.22;6156022;23;20255;-86
2024/01/06 00:33:56;;;;;;;9.20;3.23;;;;;;;13.30;51.79;98912.66;6156003;23;20161;-86
2024/01/06 00:36:23;;;;;;;16.57;4.90;;;;;;;13.23;51.83;98914.03;6156067;23;20575;-86
2024/01/06 00:38:48;;;;;;;12.10;4.80;;;;;;;13.16;51.77;98899.59;6130189;23;20189;-86
2024/01/06 00:41:14;;;;;;;9.43;3.83;;;;;;;13.26;51.41;98896.22;6130026;23;20175;-86
2024/01/06 00:43:42;;;;;;;8.87;3.83;;;;;;;13.30;51.24;98904.78;6155888;23;20158;-85
2024/01/06 00:46:09;;;;;;;8.37;3.83;;;;;;;13.25;51.27;98904.25;6155729;23;20219;-86
2024/01/06 00:48:34;;;;;;;11.03;4.50;;;;;;;12.97;52.25;98904.38;6154503;23;20681;-86
2024/01/06 00:51:01;;;;;;;11.23;5.33;;;;;;;12.82;52.38;98901.78;6155585;23;20232;-86
2024/01/06 00:53:28;;;;;;;17.70;6.13;;;;;;;12.83;51.83;98897.38;6155718;23;20232;-86
2024/01/06 00:55:53;;;;;;;11.23;5.07;;;;;;;12.82;52.03;98898.31;6156407;23;20157;-86
2024/01/06 00:58:19;;;;;;;10.87;4.43;;;;;;;12.79;51.98;98880.94;6155830;23;20164;-86
2024/01/06 01:00:46;;;;;;;14.10;4.77;;;;;;;12.78;52.34;98895.06;6155798;23;20506;-86
2024/01/06 01:03:12;;;;;;;14.87;5.83;;;;;;;12.47;53.29;98894.50;6156424;23;20151;-85
2024/01/06 01:05:39;;;;;;;9.63;5.13;;;;;;;12.44;53.12;98898.16;6156373;23;20183;-86
2024/01/06 01:08:05;;;;;;;12.10;5.50;;;;;;;12.46;53.22;98888.41;6155588;23;20153;-86
2024/01/06 01:10:30;;;;;;;14.13;5.07;;;;;;;12.32;53.64;98891.03;6154502;23;20297;-85
2024/01/06 01:12:57;;;;;;;13.07;5.23;;;;;;;12.01;54.41;98886.88;6155630;23;20149;-86
2024/01/06 01:15:24;;;;;;;15.47;5.33;;;;;;;12.17;53.89;98871.00;6129900;23;20242;-85
2024/01/06 01:17:50;;;;;;;12.63;5.10;;;;;;;12.23;53.81;98878.50;6155475;23;20231;-85
2024/01/06 01:20:17;;;;;;;16.20;5.57;;;;;;;12.30;53.67;98869.28;6155528;23;20186;-86
2024/01/06 01:22:44;;;;;;;12.90;5.17;;;;;;;12.30;54.00;98866.66;6157825;23;20147;-86
2024/01/06 01:25:12;;;;;;;14.77;5.27;;;;;;;12.26;54.10;98873.06;6159217;23;20184;-85
2024/01/06 01:27:37;;;;;;;11.20;5.17;;;;;;;12.26;54.18;98883.56;6158850;23;20628;-85
2024/01/06 01:30:05;;;;;;;15.73;5.70;;;;;;;12.32;54.21;98872.66;6158914;23;20306;-85
2024/01/06 01:32:30;;;;;;;9.83;5.30;;;;;;;12.29;54.22;98868.44;6158845;23;20591;-86
2024/01/06 01:34:57;;;;;;;9.40;4.70;;;;;;;12.30;54.46;98864.03;6158791;23;20152;-86
2024/01/06 01:37:23;;;;;;;14.90;4.77;;;;;;;12.33;54.28;98862.06;6158795;23;20148;-86
2024/01/06 01:39:48;;;;;;;5.67;3.10;;;;;;;12.25;53.53;98863.47;6158754;23;20222;-85
2024/01/06 01:42:13;;;;;;;10.27;4.10;;;;;;;11.83;55.17;98842.53;6157552;23;20631;-85
2024/01/06 01:44:40;;;;;;;9.57;3.50;;;;;;;11.65;55.29;98855.84;6157677;23;20242;-85
2024/01/06 01:47:06;;;;;;;11.77;4.77;;;;;;;11.44;55.40;98854.53;6158648;23;20231;-86
2024/01/06 01:49:32;;;;;;;8.23;3.63;;;;;;;11.50;55.30;98838.38;6158849;23;20158;-85
2024/01/06 01:51:58;;;;;;;10.20;3.33;;;;;;;11.46;55.59;98831.66;6159110;23;20152;-85
2024/01/06 01:54:25;;;;;;;10.10;3.50;;;;;;;11.54;55.18;98828.53;6158635;23;20155;-85
2024/01/06 01:56:51;;;;;;;8.17;3.63;;;;;;;11.49;55.65;98825.38;6159026;23;20147;-85
2024/01/06 01:59:21;;;;;;;6.73;3.47;;;;;;;11.25;56.28;98827.69;6133071;23;20163;-85
2024/01/06 02:01:48;;;;;;;5.87;2.60;;;;;;;11.21;56.54;98826.19;6158646;23;20163;-85
2024/01/06 02:04:14;;;;;;;7.17;3.17;;;;;;;11.35;55.64;98818.31;6157581;23;20159;-85
2024/01/06 02:06:40;;;;;;;10.00;3.33;;;;;;;11.40;55.81;98810.19;6159098;23;20147;-85
2024/01/06 02:09:06;;;;;;;8.07;3.17;;;;;;;11.57;55.01;98797.72;6157458;23;20151;-86
2024/01/06 02:11:32;;;;;;;7.03;2.83;;;;;;;11.55;54.98;98801.38;6158360;23;20583;-85
2024/01/06 02:14:00;;;;;;;8.00;3.03;;;;;;;11.55;54.84;98814.50;6133327;23;20182;-86
2024/01/06 02:16:25;;;;;;;8.13;3.57;;;;;;;11.58;55.08;98809.88;6132760;23;20178;-85
2024/01/06 02:18:52;;;;;;;13.83;3.10;;;;;;;11.67;54.64;98809.31;6158470;23;20191;-85
2024/01/06 02:21:22;;;;;;;7.60;3.17;;;;;;;11.78;54.01;98818.34;6158552;23;20175;-85
2024/01/06 02:23:49;;;;;;;10.80;3.10;;;;;;;11.80;54.45;98806.81;6158883;23;20230;-85
2024/01/06 02:26:16;;;;;;;9.33;2.87;;;;;;;11.86;54.28;98813.47;6132781;23;20236;-86
2024/01/06 02:28:41;;;;;;;6.10;2.40;;;;;;;11.97;53.08;98811.84;6158632;23;20151;-85
2024/01/06 02:31:08;;;;;;;4.83;2.43;;;;;;;11.96;53.28;98811.94;6157210;23;20173;-86
2024/01/06 02:33:35;;;;;;;4.50;2.10;;;;;;;11.92;53.43;98810.47;6131899;23;20229;-86
2024/01/06 02:36:00;;;;;;;5.73;2.40;;;;;;;11.82;53.96;98817.22;6131293;23;20654;-85
2024/01/06 02:38:25;;;;;;;5.03;2.67;;;;;;;11.84;54.29;98807.47;6155736;23;20155;-86
2024/01/06 02:40:51;;;;;;;8.87;3.30;;;;;;;11.91;54.08;98817.47;6156941;23;20616;-85
2024/01/06 02:43:17;;;;;;;7.07;2.63;;;;;;;11.97;53.98;98816.25;6156968;23;20482;-85
2024/01/06 02:45:46;;;;;;;6.37;2.23;;;;;;;11.98;53.80;98821.41;6155817;23;20489;-85
2024/01/06 02:48:12;;;;;;;10.97;2.17;;;;;;;12.01;53.58;98823.00;6156778;23;20226;-85
2024/01/06 02:50:37;;;;;;;4.37;2.07;;;;;;;12.00;53.55;98810.81;6156973;23;20178;-85
2024/01/06 02:53:04;;;;;;;5.37;2.40;;;;;;;11.99;53.50;98812.59;6156755;23;20543;-86
2024/01/06 02:55:29;;;;;;;2.87;1.53;;;;;;;11.93;53.46;98809.50;6156921;23;20186;-85
2024/01/06 02:57:55;;;;;;;6.67;2.10;;;;;;;11.87;54.00;98804.66;6156715;23;20537;-86
2024/01/06 03:00:21;;;;;;;5.40;2.10;;;;;;;11.95;53.43;98803.22;6156697;23;20180;-85
2024/01/06 03:02:48;;;;;;;9.93;2.40;;;;;;;11.96;53.50;98806.69;6157161;23;20152;-86
2024/01/06 03:05:13;;;;;;;6.03;2.47;;;;;;;11.90;53.27;98799.19;6156758;23;20144;-86
2024/01/06 03:07:39;;;;;;;4.57;2.33;;;;;;;11.87;53.21;98799.41;6155422;23;20163;-86
2024/01/06 03:10:04;;;;;;;7.53;2.57;;;;;;;11.84;53.74;98795.19;6131022;23;20148;-85
2024/01/06 03:12:30;;;;;;;5.53;2.40;;;;;;;11.90;53.66;98812.31;6156571;23;20152;-85
2024/01/06 03:14:57;;;;;;;7.97;2.80;;;;;;;11.86;53.60;98802.97;6156585;23;20527;-86
2024/01/06 03:17:22;;;;;;;4.93;2.20;;;;;;;11.75;54.15;98808.03;6157072;23;20206;-86
2024/01/06 03:19:48;;;;;;;7.20;2.80;;;;;;;11.85;54.17;98828.38;6156560;23;20151;-86
2024/01/06 03:22:13;;;;;;;8.67;3.70;;;;;;;11.63;55.04;98828.00;6130916;23;20167;-85
2024/01/06 03:24:40;;;;;;;8.80;4.23;;;;;;;11.68;55.32;98818.06;6156618;23;20148;-85
2024/01/06 03:27:05;;;;;;;9.60;4.40;;;;;;;11.71;55.00;98821.34;6156589;23;20158;-85
2024/01/06 03:29:31;;;;;;;6.73;3.30;;;;;;;11.69;54.97;98817.97;6156928;23;20151;-85
2024/01/06 03:31:58;;;;;;;6.07;3.80;;;;;;;11.63;55.38;98822.75;6156448;23;20198;-85
2024/01/06 03:34:24;;;;;;;7.13;2.87;;;;;;;11.47;56.83;98827.25;6155306;23;20155;-86
2024/01/06 03:36:50;;;;;;;8.40;2.60;;;;;;;11.45;56.91;98835.19;6155169;23;20159;-85
2024/01/06 03:39:15;;;;;;;6.83;3.20;;;;;;;11.36;57.54;98829.66;6155303;23;20488;-85
2024/01/06 03:41:41;;;;;;;10.67;3.17;;;;;;;11.33;57.58;98832.47;6155161;23;20270;-85
2024/01/06 03:44:07;;;;;;;6.90;3.13;;;;;;;11.30;57.83;98835.28;6130542;23;20156;-85
2024/01/06 03:46:35;;;;;;;5.80;3.00;;;;;;;11.22;58.16;98843.59;6155838;23;20178;-85
2024/01/06 03:49:00;;;;;;;8.50;3.10;;;;;;;11.24;58.04;98828.63;6156889;23;20186;-85
2024/01/06 03:51:26;;;;;;;10.00;3.73;;;;;;;11.32;58.08;98831.63;6130661;23;20250;-85
2024/01/06 03:53:52;;;;;;;7.20;3.10;;;;;;;11.25;58.56;98830.31;6156524;23;20253;-85
2024/01/06 03:56:18;;;;;;;5.37;2.90;;;;;;;11.38;58.03;98828.63;6156348;23;20155;-85
2024/01/06 03:58:45;;;;;;;9.47;3.07;;;;;;;11.39;58.01;98829.50;6156308;23;20166;-85
2024/01/06 04:01:12;;;;;;;6.93;2.37;;;;;;;11.36;58.30;98834.91;6156116;23;20175;-85
2024/01/06 04:03:40;;;;;;;5.33;2.97;;;;;;;11.42;57.81;98840.66;6156900;23;20158;-85
2024/01/06 04:06:06;;;;;;;7.17;2.90;;;;;;;11.20;58.83;98835.00;6156027;23;20178;-85
2024/01/06 04:08:31;;;;;;;5.47;3.00;;;;;;;11.01;59.08;98839.63;6130729;23;20475;-85
2024/01/06 04:10:57;;;;;;;8.43;3.03;;;;;;;11.04;59.32;98832.44;6156149;23;20147;-85
2024/01/06 04:13:24;;;;;;;8.67;3.00;;;;;;;11.23;59.46;98829.56;6155953;23;20562;-85
2024/01/06 04:15:51;;;;;;;7.30;3.57;;;;;;;11.31;58.82;98831.72;6156096;23;20162;-85
2024/01/06 04:18:17;;;;;;;4.97;2.83;;;;;;;11.19;58.86;98822.81;6155896;23;20162;-85
2024/01/06 04:20:42;;;;;;;7.90;2.90;;;;;;;11.29;58.93;98823.97;6156605;23;20270;-85
2024/01/06 04:23:09;;;;;;;5.93;2.87;;;;;;;11.33;58.70;98825.44;6156014;23;20151;-85
2024/01/06 04:25:34;;;;;;;6.50;3.30;;;;;;;11.42;57.90;98824.91;6155957;23;20147;-86
2024/01/06 04:28:01;;;;;;;10.70;2.83;;;;;;;11.38;58.31;98826.00;6155973;23;20151;-85
2024/01/06 04:30:28;;;;;;;5.43;2.70;;;;;;;11.39;58.03;98819.00;6156284;23;20596;-85
2024/01/06 04:32:56;;;;;;;6.57;3.23;;;;;;;11.38;58.42;98828.63;6155948;23;20152;-85
2024/01/06 04:35:22;;;;;;;6.30;3.00;;;;;;;11.33;58.73;98833.31;6156298;23;20148;-85
2024/01/06 04:37:47;;;;;;;6.90;3.07;;;;;;;11.17;59.45;98829.94;6156292;23;20163;-85
2024/01/06 04:40:13;;;;;;;6.73;3.13;;;;;;;11.00;59.96;98838.81;6155747;23;20199;-85
2024/01/06 04:42:39;;;;;;;9.53;3.47;;;;;;;10.56;61.58;98847.56;6156167;23;20531;-85
2024/01/06 04:45:06;;;;;;;6.27;3.00;;;;;;;10.61;61.46;98848.16;6130169;23;20159;-85
2024/01/06 04:47:32;;;;;;;7.73;3.63;;;;;;;10.75;61.42;98837.69;6156516;23;20210;-85
2024/01/06 04:49:59;;;;;;;25.73;9.07;;;;;;;10.80;60.89;98840.88;6155823;23;20147;-85
2024/01/06 04:52:26;;;;;;;20.07;8.20;;;;;;;10.92;60.67;98834.94;6156096;23;20162;-85
2024/01/06 04:54:52;;;;;;;15.20;5.43;;;;;;;10.97;60.45;98830.28;6156399;23;20147;-85
2024/01/06 04:57:20;;;;;;;5.37;2.90;;;;;;;10.83;61.26;98831.06;6154355;23;20238;-85
2024/01/06 04:59:47;;;;;;;9.40;3.50;;;;;;;10.92;61.49;98827.09;6155980;23;20151;-85
2024/01/06 05:02:13;;;;;;;8.50;3.30;;;;;;;11.10;60.80;98828.63;6155626;23;20230;-85
2024/01/06 05:04:40;;;;;;;5.23;3.07;;;;;;;11.11;60.59;98832.91;6156342;23;20148;-85
2024/01/06 05:07:05;;;;;;;8.53;3.70;;;;;;;10.99;60.80;98836.28;6156295;23;20516;-85
2024/01/06 05:09:31;;;;;;;6.43;3.47;;;;;;;10.83;61.74;98833.69;6154214;23;20162;-85
2024/01/06 05:11:56;;;;;;;8.47;3.83;;;;;;;11.00;61.54;98832.72;6155676;23;20589;-85
2024/01/06 05:14:23;;;;;;;6.57;3.70;;;;;;;11.13;60.87;98841.56;6155526;23;20151;-85
2024/01/06 05:16:49;;;;;;;12.57;3.53;;;;;;;11.22;60.85;98834.88;6154247;23;20169;-85
2024/01/06 05:19:19;;;;;;;9.17;2.77;;;;;;;11.33;60.59;98822.81;6131196;23;20520;-85
2024/01/06 05:21:46;;;;;;;5.43;3.10;;;;;;;11.39;60.75;98825.09;6155485;23;20570;-85
2024/01/06 05:24:12;;;;;;;6.27;3.10;;;;;;;11.41;60.29;98838.09;6155504;23;20229;-85
2024/01/06 05:26:37;;;;;;;9.67;2.70;;;;;;;11.32;60.55;98838.69;6129866;23;20600;-85
2024/01/06 05:29:03;;;;;;;7.23;2.93;;;;;;;11.30;60.89;98824.78;6155488;23;20475;-85
2024/01/06 05:31:29;;;;;;;6.43;2.70;;;;;;;11.29;61.14;98816.09;6155545;23;20147;-85
2024/01/06 05:33:56;;;;;;;6.53;2.03;;;;;;;11.33;61.25;98830.69;6129968;23;20155;-85
2024/01/06 05:36:22;;;;;;;7.40;3.17;;;;;;;11.42;60.74;98840.66;6154361;23;20185;-85
2024/01/06 05:38:47;;;;;;;6.47;3.30;;;;;;;11.52;60.43;98830.44;6129784;23;20583;-85
2024/01/06 05:41:13;;;;;;;7.50;3.40;;;;;;;11.48;60.75;98845.50;6155439;23;20634;-85
2024/01/06 05:43:40;;;;;;;6.83;3.67;;;;;;;11.43;60.72;98847.56;6154372;23;20575;-85
2024/01/06 05:46:07;;;;;;;8.93;3.70;;;;;;;11.44;60.52;98849.28;6129524;23;20193;-85
2024/01/06 05:48:33;;;;;;;7.13;3.37;;;;;;;11.50;60.62;98848.06;6155473;23;20551;-85
2024/01/06 05:50:58;;;;;;;8.13;3.33;;;;;;;11.49;60.57;98846.34;6129711;23;20230;-85
2024/01/06 05:53:24;;;;;;;7.03;3.30;;;;;;;11.38;60.67;98857.50;6155304;23;20182;-85
2024/01/06 05:55:50;;;;;;;6.63;3.27;;;;;;;11.37;60.73;98849.75;6155702;23;20306;-85
2024/01/06 05:58:16;;;;;;;6.97;3.90;;;;;;;11.46;60.93;98850.00;6155311;23;20226;-85
2024/01/06 06:00:42;;;;;;;7.00;3.70;;;;;;;11.53;60.66;98837.38;6155475;23;20662;-85
2024/01/06 06:03:09;;;;;;;6.83;3.27;;;;;;;11.57;60.48;98829.22;6155419;23;20261;-85
2024/01/06 06:05:35;;;;;;;10.17;3.90;;;;;;;11.62;60.13;98831.53;6155231;23;20148;-85
2024/01/06 06:08:00;;;;;;;9.87;3.70;;;;;;;11.63;60.09;98834.06;6155530;23;20148;-85
2024/01/06 06:10:40;;;;;;;8.20;3.23;;;;;;;11.70;59.54;98835.44;6157151;23;20151;-85
2024/01/06 06:13:10;;;;;;;8.37;3.33;;;;;;;11.61;60.34;98832.47;6157598;23;20606;-85
2024/01/06 06:15:37;;;;;;;15.13;4.90;;;;;;;11.65;60.31;98832.22;6157140;23;20135;-85
2024/01/06 06:18:03;;;;;;;10.43;3.93;;;;;;;11.66;60.27;98839.13;6156977;23;20163;-85
2024/01/06 06:20:28;;;;;;;7.17;3.30;;;;;;;11.77;60.08;98837.66;6157665;23;20179;-85
2024/01/06 06:22:55;;;;;;;15.77;7.00;;;;;;;11.68;60.32;98837.31;6157017;23;20190;-85
2024/01/06 06:25:20;;;;;;;18.33;7.30;;;;;;;11.67;60.56;98834.72;6157185;23;20184;-85
2024/01/06 06:27:47;;;;;;;15.73;6.67;;;;;;;11.65;60.42;98832.22;6157085;23;20530;-85
2024/01/06 06:30:14;;;;;;;22.03;8.27;;;;;;;11.57;60.45;98828.38;6157405;23;20216;-85
2024/01/06 06:32:41;;;;;;;22.97;8.33;;;;;;;11.49;60.90;98828.84;6157699;23;20264;-85
2024/01/06 06:35:07;;;;;;;12.97;5.73;;;;;;;11.41;61.88;98819.72;6157568;23;20159;-85
2024/01/06 06:37:33;;;;;;;9.50;4.53;;;;;;;11.51;61.59;98829.59;6156992;23;20152;-85
2024/01/06 06:39:59;;;;;;;10.60;4.90;;;;;;;11.66;60.89;98822.56;6157609;23;20179;-85
2024/01/06 06:42:26;;;;;;;13.67;6.37;;;;;;;11.63;61.51;98822.75;6157637;23;20578;-85
2024/01/06 06:44:53;;;;;;;15.10;6.63;;;;;;;11.74;61.22;98824.75;6156768;23;20257;-85
2024/01/06 06:47:19;;;;;;;18.00;7.30;;;;;;;11.75;61.04;98826.41;6157293;23;20162;-85
2024/01/06 06:49:44;;;;;;;12.23;5.23;;;;;;;11.81;60.77;98808.50;6156960;23;20150;-85
2024/01/06 06:52:12;;;;;;;14.97;5.77;;;;;;;11.77;60.99;98808.78;6156928;23;20156;-85
2024/01/06 06:54:39;;;;;;;19.10;7.77;;;;;;;11.81;60.81;98807.66;6157035;23;20186;-85
2024/01/06 06:57:04;;;;;;;28.03;11.13;;;;;;;11.83;60.88;98806.63;6157498;23;20162;-85
2024/01/06 06:59:30;;;;;;;30.67;11.83;;;;;;;11.87;60.88;98804.66;6131048;23;20175;-85
2024/01/06 07:01:57;;;;;;;18.20;6.17;;;;;;;11.90;60.65;98796.56;6131030;23;20190;-85
2024/01/06 07:04:25;;;;;;;15.47;4.50;;;;;;;11.93;60.69;98804.25;6156781;23;20707;-85
2024/01/06 07:06:51;;;;;;;9.97;4.03;;;;;;;11.95;60.39;98810.28;6156648;23;20147;-85
2024/01/06 07:09:18;;;;;;;11.43;4.57;;;;;;;12.01;60.34;98804.59;6155523;23;20194;-85
2024/01/06 07:11:44;;;;;;;7.13;3.43;;;;;;;12.11;60.09;98800.44;6157116;23;20163;-85
2024/01/06 07:14:10;;;;;;;6.07;3.37;;;;;;;12.10;59.85;98806.66;6156635;23;20271;-85
2024/01/06 07:16:37;;;;;;;7.47;3.23;;;;;;;12.19;59.70;98806.06;6156729;23;20151;-85
2024/01/06 07:19:03;;;;;;;7.13;3.13;;;;;;;12.26;59.70;98812.63;6156411;23;20163;-85
2024/01/06 07:21:28;;;;;;;6.63;3.27;;;;;;;12.32;59.03;98796.44;6156730;23;20507;-85
2024/01/06 07:23:55;;;;;;;10.37;3.40;;;;;;;12.23;59.19;98802.31;6156661;23;20177;-85
2024/01/06 07:26:20;;;;;;;6.80;3.90;;;;;;;12.18;59.82;98799.97;6156677;23;20210;-85
2024/01/06 07:28:47;;;;;;;9.37;3.63;;;;;;;12.25;59.59;98782.88;6157041;23;20152;-85
2024/01/06 07:31:14;;;;;;;10.03;4.03;;;;;;;12.29;59.29;98797.47;6130616;23;20264;-85
2024/01/06 07:33:41;;;;;;;8.03;3.73;;;;;;;12.38;59.29;98796.03;6154071;23;20270;-85
2024/01/06 07:36:06;;;;;;;7.37;3.63;;;;;;;12.42;59.29;98797.53;6155216;23;20489;-86
2024/01/06 07:38:32;;;;;;;10.47;4.73;;;;;;;12.44;58.88;98793.03;6130099;23;20156;-85
2024/01/06 07:40:57;;;;;;;9.47;4.23;;;;;;;12.53;58.46;98788.94;6155578;23;20313;-85
2024/01/06 07:43:24;;;;;;;6.63;3.37;;;;;;;12.46;58.89;98785.88;6155856;23;20482;-85
2024/01/06 07:45:51;;;;;;;9.00;4.07;;;;;;;12.53;58.58;98787.16;6155896;23;20151;-85
2024/01/06 07:48:17;;;;;;;7.80;3.47;;;;;;;12.53;58.83;98796.81;6155727;23;20148;-85
2024/01/06 07:50:45;;;;;;;10.23;3.60;;;;;;;12.49;59.04;98788.31;6155840;23;20459;-85
2024/01/06 07:53:13;;;;;;;7.50;3.50;;;;;;;12.51;58.85;98782.94;6156240;23;20452;-85
2024/01/06 07:55:40;;;;;;;11.63;4.13;;;;;;;12.53;58.10;98781.88;6155389;23;20151;-85
2024/01/06 07:58:07;;;;;;;10.73;4.53;;;;;;;12.56;58.21;98768.53;6155642;23;20147;-85
2024/01/06 08:00:34;;;;;;;10.13;4.30;;;;;;;12.57;58.02;98761.50;6155648;23;20179;-85
2024/01/06 08:03:00;;;;;;;9.33;4.47;;;;;;;12.55;58.82;98764.22;6130242;23;20160;-84
2024/01/06 08:05:26;;;;;;;8.80;4.07;;;;;;;12.53;58.87;98754.75;6156297;23;20151;-85
2024/01/06 08:07:52;;;;;;;15.03;4.03;;;;;;;12.45;59.65;98760.53;6155655;23;20451;-85
2024/01/06 08:10:20;;;;;;;10.30;5.37;;;;;;;12.34;60.46;98773.56;6129832;23;20164;-85
2024/01/06 08:12:48;;;;;;;15.23;4.93;;;;;;;12.39;61.11;98768.84;6155522;23;20159;-85
2024/01/06 08:15:15;;;;;;;8.33;3.90;;;;;;;12.45;60.80;98765.78;6129917;23;20152;-85
2024/01/06 08:17:40;;;;;;;12.97;4.57;;;;;;;12.56;60.81;98757.19;6129478;23;20259;-85
2024/01/06 08:20:08;;;;;;;12.47;6.13;;;;;;;12.68;60.45;98770.34;6129982;23;20331;-85
2024/01/06 08:22:33;;;;;;;18.67;6.20;;;;;;;12.86;59.84;98768.28;6155601;23;20158;-85
2024/01/06 08:24:59;;;;;;;11.07;5.07;;;;;;;12.92;59.60;98767.84;6155310;23;20153;-85
2024/01/06 08:27:24;;;;;;;14.23;5.40;;;;;;;13.01;59.70;98779.56;6155479;23;20183;-85
2024/01/06 08:29:51;;;;;;;7.97;3.43;;;;;;;13.15;59.32;98768.97;6155477;23;20153;-85
2024/01/06 08:32:18;;;;;;;7.30;4.00;;;;;;;13.23;58.69;98764.03;6129115;23;20161;-85
2024/01/06 08:34:45;;;;;;;11.77;4.27;;;;;;;13.19;58.30;98767.78;6155683;23;20196;-85
2024/01/06 08:37:11;;;;;;;14.43;5.40;;;;;;;13.19;58.64;98759.91;6155337;23;20182;-85
2024/01/06 08:39:38;;;;;;;17.97;7.40;;;;;;;13.25;58.66;98760.34;6155155;23;20480;-86
2024/01/06 08:42:04;;;;;;;26.57;11.70;;;;;;;13.33;58.62;98758.00;6155522;23;20271;-85
2024/01/06 08:44:30;;;;;;;18.83;9.27;;;;;;;13.38;58.18;98757.69;6155313;23;20531;-85
2024/01/06 08:46:57;;;;;;;20.53;9.70;;;;;;;13.49;57.87;98752.53;6155182;23;20149;-85
2024/01/06 08:49:22;;;;;;;15.93;9.47;;;;;;;13.60;57.38;98747.31;6155384;23;20157;-85
2024/01/06 08:51:47;;;;;;;11.63;5.47;;;;;;;13.56;57.43;98751.13;6155340;23;20236;-85
2024/01/06 08:54:14;;;;;;;10.10;5.27;;;;;;;13.65;57.00;98745.22;6155029;23;20150;-85
2024/01/06 08:56:40;;;;;;;9.37;4.27;;;;;;;13.49;57.38;98752.53;6155457;23;20153;-85
2024/01/06 08:59:05;;;;;;;9.37;4.80;;;;;;;13.57;57.11;98740.47;6129614;23;20308;-85
2024/01/06 09:01:33;;;;;;;10.67;4.83;;;;;;;13.61;57.56;98742.88;6155000;23;20179;-85
2024/01/06 09:03:59;;;;;;;8.10;4.97;;;;;;;13.71;56.82;98738.66;6155443;23;20151;-85
2024/01/06 09:06:26;;;;;;;12.83;5.53;;;;;;;13.77;56.60;98749.59;6155219;23;20643;-85
2024/01/06 09:08:53;;;;;;;16.80;5.40;;;;;;;13.82;56.47;98736.94;6154693;23;20160;-85
2024/01/06 09:11:19;;;;;;;10.73;5.10;;;;;;;13.83;56.60;98733.38;6129505;23;20205;-85
2024/01/06 09:13:48;;;;;;;13.20;5.20;;;;;;;13.74;56.85;98733.16;6129199;23;20204;-85
2024/01/06 09:16:18;;;;;;;9.67;5.10;;;;;;;13.77;56.99;98725.91;6129331;23;20173;-85
2024/01/06 09:18:45;;;;;;;9.97;5.70;;;;;;;13.81;57.43;98722.06;6129451;23;20297;-85
2024/01/06 09:21:10;;;;;;;12.93;5.60;;;;;;;13.84;57.87;98723.63;6155451;23;20178;-85
2024/01/06 09:23:37;;;;;;;14.60;5.90;;;;;;;13.89;56.90;98718.88;6154951;23;20242;-85
2024/01/06 09:26:03;;;;;;;12.47;5.50;;;;;;;13.83;56.79;98712.28;6154630;23;20454;-85
2024/01/06 09:28:28;;;;;;;9.40;4.97;;;;;;;13.87;56.40;98708.47;6155119;23;20220;-85
2024/01/06 09:30:55;;;;;;;11.00;5.80;;;;;;;13.92;55.71;98711.59;6155373;23;20496;-87
2024/01/06 09:33:23;;;;;;;12.63;5.70;;;;;;;13.88;56.55;98704.88;6154804;23;20157;-87
2024/01/06 09:35:50;;;;;;;15.80;6.50;;;;;;;13.86;55.93;98696.22;6155229;23;20154;-86
2024/01/06 09:38:18;;;;;;;13.43;6.67;;;;;;;13.81;56.24;98708.91;6153797;23;20255;-84
2024/01/06 09:40:45;;;;;;;14.20;7.33;;;;;;;13.62;55.88;98702.44;6129151;23;20185;-85
2024/01/06 09:43:12;;;;;;;16.33;6.73;;;;;;;13.50;56.69;98701.53;6156042;23;20236;-86
2024/01/06 09:45:39;;;;;;;16.43;6.20;;;;;;;13.52;56.62;98697.81;6157092;23;20180;-85
2024/01/06 09:48:13;;;;;;;11.17;5.77;;;;;;;13.55;56.66;98691.50;6157010;23;20158;-85
2024/01/06 09:50:42;;;;;;;11.90;6.13;;;;;;;13.49;57.05;98689.31;6157088;23;20561;-85
2024/01/06 09:53:13;;;;;;;11.07;5.93;;;;;;;13.49;57.62;98676.16;6155754;23;20229;-85
2024/01/06 09:55:40;;;;;;;11.17;5.20;;;;;;;13.46;57.38;98682.50;6130784;23;20156;-85
2024/01/06 09:58:11;;;;;;;13.60;5.33;;;;;;;13.42;58.27;98669.63;6156817;23;20151;-85
2024/01/06 10:00:38;;;;;;;11.03;5.67;;;;;;;13.39;58.26;98680.41;6156438;23;20172;-85
2024/01/06 10:03:04;;;;;;;8.73;4.70;;;;;;;13.22;59.47;98672.84;6156439;23;20261;-85
2024/01/06 10:05:31;;;;;;;9.30;4.67;;;;;;;13.27;59.28;98663.69;6156831;23;20148;-85
2024/01/06 10:07:59;;;;;;;9.40;4.57;;;;;;;13.43;58.64;98663.44;6156708;23;20228;-85
2024/01/06 10:10:27;;;;;;;11.70;6.10;;;;;;;13.48;59.19;98662.16;6156439;23;20150;-85
2024/01/06 10:12:55;;;;;;;9.50;5.10;;;;;;;13.65;58.47;98653.03;6156008;23;20516;-85
2024/01/06 10:15:20;;;;;;;9.67;5.20;;;;;;;13.63;57.66;98641.75;6155143;23;20161;-85
2024/01/06 10:17:46;;;;;;;10.87;5.00;;;;;;;13.42;58.93;98649.41;6156451;23;20166;-85
2024/01/06 10:20:13;;;;;;;12.03;5.50;;;;;;;13.48;59.37;98643.72;6156768;23;20208;-85
2024/01/06 10:22:41;;;;;;;12.50;5.37;;;;;;;13.64;58.93;98637.34;6156774;23;20288;-85
2024/01/06 10:25:09;;;;;;;9.80;5.20;;;;;;;13.71;58.91;98631.50;6156326;23;20184;-85
2024/01/06 10:27:35;;;;;;;11.07;5.03;;;;;;;13.70;59.07;98631.63;6156755;23;20154;-85
2024/01/06 10:30:01;;;;;;;11.20;5.13;;;;;;;13.79;59.03;98626.53;6156504;23;20574;-85
2024/01/06 10:32:30;;;;;;;11.20;5.23;;;;;;;13.88;58.48;98619.75;6156338;23;20290;-85
2024/01/06 10:34:56;;;;;;;11.63;5.40;;;;;;;13.84;58.61;98624.38;6156837;23;20154;-85
2024/01/06 10:37:21;;;;;;;14.67;5.27;;;;;;;13.68;59.15;98613.28;6156478;23;20500;-85
2024/01/06 10:39:47;;;;;;;12.20;5.57;;;;;;;13.75;58.69;98605.78;6155999;23;20578;-85
2024/01/06 10:42:14;;;;;;;13.53;5.27;;;;;;;13.62;59.22;98607.66;6156770;23;20151;-85
2024/01/06 10:44:42;;;;;;;12.23;5.00;;;;;;;13.62;59.33;98591.84;6156703;23;20154;-85
2024/01/06 10:47:08;;;;;;;13.40;6.17;;;;;;;13.65;58.94;98595.09;6156081;23;20212;-85
2024/01/06 10:49:35;;;;;;;11.83;6.40;;;;;;;13.63;59.22;98589.09;6156507;23;20583;-85
2024/01/06 10:52:01;;;;;;;15.10;6.87;;;;;;;13.69;59.15;98585.16;6156343;23;20149;-85
2024/01/06 10:54:28;;;;;;;9.37;5.83;;;;;;;13.63;59.61;98582.97;6155745;23;20176;-85
2024/01/06 10:56:56;;;;;;;65.70;25.73;;;;;;;13.58;59.74;98567.53;6130559;23;20164;-85
2024/01/06 10:59:24;;;;;;;35.47;15.43;;;;;;;13.69;59.75;98572.00;6130445;23;20158;-85
2024/01/06 11:01:52;;;;;;;31.10;12.23;;;;;;;13.71;59.50;98573.56;6154738;23;20223;-85
2024/01/06 11:04:19;;;;;;;20.77;10.10;;;;;;;13.77;59.30;98565.22;6156415;23;20652;-85
2024/01/06 11:06:45;;;;;;;30.43;13.60;;;;;;;13.71;59.29;98559.56;6156439;23;20236;-85
2024/01/06 11:09:21;;;;;;;19.70;8.70;;;;;;;13.70;59.68;98574.53;6155740;23;20251;-85
2024/01/06 11:11:48;;;;;;;15.80;7.23;;;;;;;13.57;60.08;98559.75;6156113;23;20474;-85
2024/01/06 11:14:24;;;;;;;16.10;6.93;;;;;;;13.47;60.47;98556.94;6156181;23;20154;-85
2024/01/06 11:16:51;;;;;;;11.97;5.53;;;;;;;13.49;60.34;98557.69;6155784;23;20571;-85
2024/01/06 11:19:34;;;;;;;11.07;5.93;;;;;;;13.38;60.81;98562.88;6156110;23;20236;-85
2024/01/06 11:22:20;;;;;;;9.33;4.70;;;;;;;13.30;61.20;98559.97;6155849;23;20270;-85
2024/01/06 11:24:53;;;;;;;11.07;4.93;;;;;;;13.35;61.29;98552.56;6155765;23;20164;-85
2024/01/06 11:27:28;;;;;;;7.43;4.03;;;;;;;13.30;61.75;98554.72;6156142;23;20153;-85